sensor_id;sensor_type;location;lat;lon;timestamp;P1;durP1;ratioP1;P2;durP2;ratioP2
71296;SDS011;59082;50.658;4.608;2023-02-18T00:00:15;26.03;;;11.73;;
71296;SDS011;59082;50.658;4.608;2023-02-18T00:02:43;30.35;;;11.65;;
71296;SDS011;59082;50.658;4.608;2023-02-18T00:05:09;23.60;;;11.30;;
71296;SDS011;59082;50.658;4.608;2023-02-18T00:07:35;26.30;;;11.00;;
71296;SDS011;59082;50.658;4.608;2023-02-18T00:10:02;25.75;;;11.40;;
71296;SDS011;59082;50.658;4.608;2023-02-18T00:12:29;24.95;;;10.43;;
71296;SDS011;59082;50.658;4.608;2023-02-18T00:14:55;23.55;;;10.32;;
71296;SDS011;59082;50.658;4.608;2023-02-18T00:17:21;25.17;;;10.40;;
71296;SDS011;59082;50.658;4.608;2023-02-18T00:19:47;27.60;;;11.27;;
71296;SDS011;59082;50.658;4.608;2023-02-18T00:22:13;32.60;;;11.30;;
71296;SDS011;59082;50.658;4.608;2023-02-18T00:24:38;30.48;;;11.50;;
71296;SDS011;59082;50.658;4.608;2023-02-18T00:27:04;28.90;;;11.57;;
71296;SDS011;59082;50.658;4.608;2023-02-18T00:29:29;28.17;;;11.30;;
71296;SDS011;59082;50.658;4.608;2023-02-18T00:31:56;24.87;;;10.03;;
71296;SDS011;59082;50.658;4.608;2023-02-18T00:34:21;25.40;;;10.30;;
71296;SDS011;59082;50.658;4.608;2023-02-18T00:36:47;22.80;;;9.40;;
71296;SDS011;59082;50.658;4.608;2023-02-18T00:39:12;21.60;;;8.70;;
71296;SDS011;59082;50.658;4.608;2023-02-18T00:41:38;17.87;;;8.23;;
71296;SDS011;59082;50.658;4.608;2023-02-18T00:44:04;20.33;;;9.10;;
71296;SDS011;59082;50.658;4.608;2023-02-18T00:46:31;19.70;;;8.43;;
71296;SDS011;59082;50.658;4.608;2023-02-18T00:48:57;14.63;;;6.65;;
71296;SDS011;59082;50.658;4.608;2023-02-18T00:51:22;12.33;;;5.97;;
71296;SDS011;59082;50.658;4.608;2023-02-18T00:53:49;12.63;;;5.43;;
71296;SDS011;59082;50.658;4.608;2023-02-18T00:56:15;9.70;;;5.17;;
71296;SDS011;59082;50.658;4.608;2023-02-18T00:58:41;10.35;;;4.85;;
71296;SDS011;59082;50.658;4.608;2023-02-18T01:01:07;6.37;;;3.97;;
71296;SDS011;59082;50.658;4.608;2023-02-18T01:03:35;5.18;;;3.35;;
71296;SDS011;59082;50.658;4.608;2023-02-18T01:06:02;6.53;;;3.33;;
71296;SDS011;59082;50.658;4.608;2023-02-18T01:08:29;4.30;;;3.05;;
71296;SDS011;59082;50.658;4.608;2023-02-18T01:10:55;5.57;;;3.00;;
71296;SDS011;59082;50.658;4.608;2023-02-18T01:13:22;4.85;;;3.42;;
71296;SDS011;59082;50.658;4.608;2023-02-18T01:15:48;3.67;;;2.63;;
71296;SDS011;59082;50.658;4.608;2023-02-18T01:18:14;3.63;;;3.10;;
71296;SDS011;59082;50.658;4.608;2023-02-18T01:20:40;5.05;;;3.33;;
71296;SDS011;59082;50.658;4.608;2023-02-18T01:23:07;4.35;;;2.80;;
71296;SDS011;59082;50.658;4.608;2023-02-18T01:25:34;3.57;;;1.90;;
71296;SDS011;59082;50.658;4.608;2023-02-18T01:28:00;3.15;;;2.05;;
71296;SDS011;59082;50.658;4.608;2023-02-18T01:30:25;3.20;;;2.45;;
71296;SDS011;59082;50.658;4.608;2023-02-18T01:32:51;4.63;;;2.90;;
71296;SDS011;59082;50.658;4.608;2023-02-18T01:35:18;3.63;;;2.88;;
71296;SDS011;59082;50.658;4.608;2023-02-18T01:37:44;3.30;;;2.72;;
71296;SDS011;59082;50.658;4.608;2023-02-18T01:40:14;3.27;;;2.70;;
71296;SDS011;59082;50.658;4.608;2023-02-18T01:42:42;5.38;;;2.38;;
71296;SDS011;59082;50.658;4.608;2023-02-18T01:48:06;4.60;;;2.70;;
71296;SDS011;59082;50.658;4.608;2023-02-18T01:50:37;4.50;;;3.25;;
71296;SDS011;59082;50.658;4.608;2023-02-18T01:53:07;4.60;;;3.05;;
71296;SDS011;59082;50.658;4.608;2023-02-18T01:55:33;4.17;;;3.00;;
71296;SDS011;59082;50.658;4.608;2023-02-18T01:58:01;3.80;;;3.07;;
71296;SDS011;59082;50.658;4.608;2023-02-18T02:00:27;5.25;;;3.78;;
71296;SDS011;59082;50.658;4.608;2023-02-18T02:02:53;4.47;;;3.13;;
71296;SDS011;59082;50.658;4.608;2023-02-18T02:05:19;4.10;;;2.90;;
71296;SDS011;59082;50.658;4.608;2023-02-18T02:07:46;4.70;;;3.17;;
71296;SDS011;59082;50.658;4.608;2023-02-18T02:10:14;4.47;;;2.45;;
71296;SDS011;59082;50.658;4.608;2023-02-18T02:12:47;4.33;;;3.70;;
71296;SDS011;59082;50.658;4.608;2023-02-18T02:18:21;5.15;;;3.70;;
71296;SDS011;59082;50.658;4.608;2023-02-18T02:37:03;3.78;;;2.78;;
71296;SDS011;59082;50.658;4.608;2023-02-18T02:48:12;5.57;;;2.72;;
71296;SDS011;59082;50.658;4.608;2023-02-18T02:53:21;4.63;;;2.90;;
71296;SDS011;59082;50.658;4.608;2023-02-18T02:55:50;6.70;;;3.42;;
71296;SDS011;59082;50.658;4.608;2023-02-18T02:58:16;3.37;;;2.57;;
71296;SDS011;59082;50.658;4.608;2023-02-18T03:11:34;6.10;;;2.78;;
71296;SDS011;59082;50.658;4.608;2023-02-18T03:14:54;5.18;;;3.40;;
71296;SDS011;59082;50.658;4.608;2023-02-18T03:17:29;5.20;;;3.28;;
71296;SDS011;59082;50.658;4.608;2023-02-18T03:20:05;5.63;;;3.20;;
71296;SDS011;59082;50.658;4.608;2023-02-18T03:22:41;4.57;;;3.23;;
71296;SDS011;59082;50.658;4.608;2023-02-18T03:25:10;6.72;;;3.97;;
71296;SDS011;59082;50.658;4.608;2023-02-18T03:27:40;6.15;;;3.40;;
71296;SDS011;59082;50.658;4.608;2023-02-18T03:30:29;7.35;;;4.05;;
71296;SDS011;59082;50.658;4.608;2023-02-18T03:32:59;8.25;;;4.32;;
71296;SDS011;59082;50.658;4.608;2023-02-18T03:35:28;7.30;;;4.83;;
71296;SDS011;59082;50.658;4.608;2023-02-18T03:38:37;6.30;;;4.18;;
71296;SDS011;59082;50.658;4.608;2023-02-18T03:40:42;6.70;;;4.53;;
71296;SDS011;59082;50.658;4.608;2023-02-18T03:43:08;7.47;;;4.97;;
71296;SDS011;59082;50.658;4.608;2023-02-18T03:45:34;5.88;;;4.50;;
71296;SDS011;59082;50.658;4.608;2023-02-18T03:47:59;6.73;;;4.23;;
71296;SDS011;59082;50.658;4.608;2023-02-18T03:50:25;8.13;;;4.80;;
71296;SDS011;59082;50.658;4.608;2023-02-18T03:52:50;7.65;;;4.60;;
71296;SDS011;59082;50.658;4.608;2023-02-18T03:55:17;7.72;;;4.55;;
71296;SDS011;59082;50.658;4.608;2023-02-18T03:57:42;5.43;;;4.00;;
71296;SDS011;59082;50.658;4.608;2023-02-18T04:00:08;7.18;;;4.30;;
71296;SDS011;59082;50.658;4.608;2023-02-18T04:02:35;5.67;;;3.97;;
71296;SDS011;59082;50.658;4.608;2023-02-18T04:05:02;6.15;;;4.10;;
71296;SDS011;59082;50.658;4.608;2023-02-18T04:07:27;5.78;;;3.58;;
71296;SDS011;59082;50.658;4.608;2023-02-18T04:09:53;4.23;;;2.73;;
71296;SDS011;59082;50.658;4.608;2023-02-18T04:12:18;6.50;;;3.97;;
71296;SDS011;59082;50.658;4.608;2023-02-18T04:14:44;6.13;;;3.58;;
71296;SDS011;59082;50.658;4.608;2023-02-18T04:17:09;6.13;;;3.33;;
71296;SDS011;59082;50.658;4.608;2023-02-18T04:19:35;4.70;;;3.33;;
71296;SDS011;59082;50.658;4.608;2023-02-18T04:22:01;4.85;;;2.90;;
71296;SDS011;59082;50.658;4.608;2023-02-18T04:24:27;4.10;;;3.15;;
71296;SDS011;59082;50.658;4.608;2023-02-18T04:26:52;4.67;;;3.30;;
71296;SDS011;59082;50.658;4.608;2023-02-18T04:29:18;4.17;;;3.50;;
71296;SDS011;59082;50.658;4.608;2023-02-18T04:31:43;4.68;;;2.95;;
71296;SDS011;59082;50.658;4.608;2023-02-18T04:34:09;4.77;;;2.70;;
71296;SDS011;59082;50.658;4.608;2023-02-18T04:36:34;4.53;;;2.93;;
71296;SDS011;59082;50.658;4.608;2023-02-18T04:39:00;4.10;;;3.40;;
71296;SDS011;59082;50.658;4.608;2023-02-18T04:41:26;3.50;;;2.83;;
71296;SDS011;59082;50.658;4.608;2023-02-18T04:43:51;4.60;;;3.22;;
71296;SDS011;59082;50.658;4.608;2023-02-18T04:46:17;5.17;;;2.47;;
71296;SDS011;59082;50.658;4.608;2023-02-18T04:48:42;3.80;;;3.10;;
71296;SDS011;59082;50.658;4.608;2023-02-18T04:51:08;3.17;;;2.88;;
71296;SDS011;59082;50.658;4.608;2023-02-18T04:53:33;3.97;;;2.83;;
71296;SDS011;59082;50.658;4.608;2023-02-18T04:55:59;4.20;;;2.53;;
71296;SDS011;59082;50.658;4.608;2023-02-18T04:58:25;3.67;;;2.63;;
71296;SDS011;59082;50.658;4.608;2023-02-18T05:00:50;3.33;;;2.67;;
71296;SDS011;59082;50.658;4.608;2023-02-18T05:03:17;4.13;;;2.38;;
71296;SDS011;59082;50.658;4.608;2023-02-18T05:05:42;5.77;;;2.70;;
71296;SDS011;59082;50.658;4.608;2023-02-18T05:08:08;4.10;;;2.40;;
71296;SDS011;59082;50.658;4.608;2023-02-18T05:10:33;4.50;;;2.60;;
71296;SDS011;59082;50.658;4.608;2023-02-18T05:12:59;2.93;;;1.97;;
71296;SDS011;59082;50.658;4.608;2023-02-18T05:15:25;4.90;;;2.47;;
71296;SDS011;59082;50.658;4.608;2023-02-18T05:17:51;4.33;;;2.73;;
71296;SDS011;59082;50.658;4.608;2023-02-18T05:20:16;9.35;;;2.90;;
71296;SDS011;59082;50.658;4.608;2023-02-18T05:22:42;3.23;;;2.47;;
71296;SDS011;59082;50.658;4.608;2023-02-18T05:25:07;3.67;;;2.22;;
71296;SDS011;59082;50.658;4.608;2023-02-18T05:27:33;4.83;;;2.67;;
71296;SDS011;59082;50.658;4.608;2023-02-18T05:29:59;4.72;;;3.00;;
71296;SDS011;59082;50.658;4.608;2023-02-18T05:32:24;4.23;;;2.40;;
71296;SDS011;59082;50.658;4.608;2023-02-18T05:34:50;2.80;;;2.15;;
71296;SDS011;59082;50.658;4.608;2023-02-18T05:37:16;3.10;;;1.77;;
71296;SDS011;59082;50.658;4.608;2023-02-18T05:39:42;3.70;;;2.67;;
71296;SDS011;59082;50.658;4.608;2023-02-18T05:42:09;4.37;;;2.57;;
71296;SDS011;59082;50.658;4.608;2023-02-18T05:44:35;5.60;;;2.65;;
71296;SDS011;59082;50.658;4.608;2023-02-18T05:47:08;4.40;;;3.15;;
71296;SDS011;59082;50.658;4.608;2023-02-18T05:49:35;3.05;;;2.30;;
71296;SDS011;59082;50.658;4.608;2023-02-18T05:52:02;3.90;;;2.33;;
71296;SDS011;59082;50.658;4.608;2023-02-18T05:54:28;5.15;;;3.00;;
71296;SDS011;59082;50.658;4.608;2023-02-18T05:56:54;6.03;;;2.63;;
71296;SDS011;59082;50.658;4.608;2023-02-18T05:59:20;4.27;;;2.50;;
71296;SDS011;59082;50.658;4.608;2023-02-18T06:01:45;5.60;;;2.60;;
71296;SDS011;59082;50.658;4.608;2023-02-18T06:04:12;4.80;;;2.47;;
71296;SDS011;59082;50.658;4.608;2023-02-18T06:06:38;6.07;;;3.35;;
71296;SDS011;59082;50.658;4.608;2023-02-18T06:09:04;5.35;;;3.10;;
71296;SDS011;59082;50.658;4.608;2023-02-18T06:11:30;5.43;;;3.77;;
71296;SDS011;59082;50.658;4.608;2023-02-18T06:13:56;6.35;;;3.10;;
71296;SDS011;59082;50.658;4.608;2023-02-18T06:16:22;7.15;;;3.20;;
71296;SDS011;59082;50.658;4.608;2023-02-18T06:18:47;7.20;;;3.10;;
71296;SDS011;59082;50.658;4.608;2023-02-18T06:21:13;5.18;;;3.08;;
71296;SDS011;59082;50.658;4.608;2023-02-18T06:23:39;5.20;;;2.17;;
71296;SDS011;59082;50.658;4.608;2023-02-18T06:26:04;7.00;;;2.60;;
71296;SDS011;59082;50.658;4.608;2023-02-18T06:28:30;5.60;;;2.57;;
71296;SDS011;59082;50.658;4.608;2023-02-18T06:30:55;6.20;;;2.63;;
71296;SDS011;59082;50.658;4.608;2023-02-18T06:33:21;6.75;;;2.30;;
71296;SDS011;59082;50.658;4.608;2023-02-18T06:35:54;7.30;;;2.83;;
71296;SDS011;59082;50.658;4.608;2023-02-18T06:38:21;7.00;;;3.07;;
71296;SDS011;59082;50.658;4.608;2023-02-18T06:40:47;6.85;;;2.20;;
71296;SDS011;59082;50.658;4.608;2023-02-18T06:43:13;7.43;;;2.53;;
71296;SDS011;59082;50.658;4.608;2023-02-18T06:45:38;6.53;;;2.60;;
71296;SDS011;59082;50.658;4.608;2023-02-18T06:48:04;7.18;;;2.28;;
71296;SDS011;59082;50.658;4.608;2023-02-18T06:50:30;10.70;;;2.33;;
71296;SDS011;59082;50.658;4.608;2023-02-18T06:52:56;4.95;;;2.20;;
71296;SDS011;59082;50.658;4.608;2023-02-18T06:55:23;4.00;;;1.40;;
71296;SDS011;59082;50.658;4.608;2023-02-18T06:57:49;6.33;;;2.03;;
71296;SDS011;59082;50.658;4.608;2023-02-18T07:00:15;5.40;;;1.63;;
71296;SDS011;59082;50.658;4.608;2023-02-18T07:02:41;7.23;;;2.33;;
71296;SDS011;59082;50.658;4.608;2023-02-18T07:05:06;4.50;;;1.23;;
71296;SDS011;59082;50.658;4.608;2023-02-18T07:07:32;4.43;;;1.98;;
71296;SDS011;59082;50.658;4.608;2023-02-18T07:09:58;5.63;;;1.80;;
71296;SDS011;59082;50.658;4.608;2023-02-18T07:12:23;5.53;;;1.87;;
71296;SDS011;59082;50.658;4.608;2023-02-18T07:14:49;6.10;;;2.30;;
71296;SDS011;59082;50.658;4.608;2023-02-18T07:17:15;7.47;;;2.70;;
71296;SDS011;59082;50.658;4.608;2023-02-18T07:19:40;6.40;;;2.57;;
71296;SDS011;59082;50.658;4.608;2023-02-18T07:22:06;4.95;;;1.88;;
71296;SDS011;59082;50.658;4.608;2023-02-18T07:24:32;4.50;;;2.10;;
71296;SDS011;59082;50.658;4.608;2023-02-18T07:26:57;8.23;;;2.13;;
71296;SDS011;59082;50.658;4.608;2023-02-18T07:29:23;8.83;;;1.77;;
71296;SDS011;59082;50.658;4.608;2023-02-18T07:31:48;7.23;;;2.37;;
71296;SDS011;59082;50.658;4.608;2023-02-18T07:34:14;9.87;;;2.20;;
71296;SDS011;59082;50.658;4.608;2023-02-18T07:36:39;9.63;;;1.95;;
71296;SDS011;59082;50.658;4.608;2023-02-18T07:39:05;8.37;;;2.20;;
71296;SDS011;59082;50.658;4.608;2023-02-18T07:41:30;5.57;;;2.03;;
71296;SDS011;59082;50.658;4.608;2023-02-18T07:43:56;6.07;;;1.80;;
71296;SDS011;59082;50.658;4.608;2023-02-18T07:46:21;6.77;;;2.23;;
71296;SDS011;59082;50.658;4.608;2023-02-18T07:48:47;9.73;;;2.37;;
71296;SDS011;59082;50.658;4.608;2023-02-18T07:51:12;5.40;;;2.17;;
71296;SDS011;59082;50.658;4.608;2023-02-18T07:53:38;8.20;;;2.43;;
71296;SDS011;59082;50.658;4.608;2023-02-18T07:56:05;7.22;;;2.83;;
71296;SDS011;59082;50.658;4.608;2023-02-18T07:58:32;10.35;;;2.40;;
71296;SDS011;59082;50.658;4.608;2023-02-18T08:01:03;12.05;;;2.75;;
71296;SDS011;59082;50.658;4.608;2023-02-18T08:03:37;6.17;;;2.43;;
71296;SDS011;59082;50.658;4.608;2023-02-18T08:06:03;9.50;;;3.08;;
71296;SDS011;59082;50.658;4.608;2023-02-18T08:08:30;10.70;;;4.18;;
71296;SDS011;59082;50.658;4.608;2023-02-18T08:10:57;7.28;;;3.53;;
71296;SDS011;59082;50.658;4.608;2023-02-18T08:13:27;4.63;;;2.65;;
71296;SDS011;59082;50.658;4.608;2023-02-18T08:15:54;13.13;;;4.13;;
71296;SDS011;59082;50.658;4.608;2023-02-18T08:18:21;6.05;;;3.25;;
71296;SDS011;59082;50.658;4.608;2023-02-18T08:20:47;11.65;;;5.70;;
71296;SDS011;59082;50.658;4.608;2023-02-18T08:23:14;9.98;;;5.40;;
71296;SDS011;59082;50.658;4.608;2023-02-18T08:25:44;6.32;;;3.25;;
71296;SDS011;59082;50.658;4.608;2023-02-18T08:28:11;4.53;;;1.90;;
71296;SDS011;59082;50.658;4.608;2023-02-18T08:30:37;5.78;;;2.10;;
71296;SDS011;59082;50.658;4.608;2023-02-18T08:33:02;7.07;;;2.90;;
71296;SDS011;59082;50.658;4.608;2023-02-18T08:35:28;5.60;;;2.40;;
71296;SDS011;59082;50.658;4.608;2023-02-18T08:37:54;7.60;;;2.30;;
71296;SDS011;59082;50.658;4.608;2023-02-18T08:40:19;7.17;;;2.77;;
71296;SDS011;59082;50.658;4.608;2023-02-18T08:42:45;8.27;;;2.53;;
71296;SDS011;59082;50.658;4.608;2023-02-18T08:45:11;7.03;;;2.00;;
71296;SDS011;59082;50.658;4.608;2023-02-18T08:47:36;5.77;;;2.10;;
71296;SDS011;59082;50.658;4.608;2023-02-18T08:50:02;8.85;;;2.63;;
71296;SDS011;59082;50.658;4.608;2023-02-18T08:52:29;6.82;;;1.75;;
71296;SDS011;59082;50.658;4.608;2023-02-18T08:54:54;6.13;;;1.83;;
71296;SDS011;59082;50.658;4.608;2023-02-18T08:57:20;6.57;;;1.30;;
71296;SDS011;59082;50.658;4.608;2023-02-18T08:59:45;4.93;;;2.17;;
71296;SDS011;59082;50.658;4.608;2023-02-18T09:02:14;7.30;;;2.53;;
71296;SDS011;59082;50.658;4.608;2023-02-18T09:04:39;3.97;;;1.77;;
71296;SDS011;59082;50.658;4.608;2023-02-18T09:07:05;5.27;;;2.37;;
71296;SDS011;59082;50.658;4.608;2023-02-18T09:09:31;4.17;;;1.57;;
71296;SDS011;59082;50.658;4.608;2023-02-18T09:11:56;5.80;;;1.92;;
71296;SDS011;59082;50.658;4.608;2023-02-18T09:14:22;4.95;;;2.55;;
71296;SDS011;59082;50.658;4.608;2023-02-18T09:16:48;5.40;;;2.20;;
71296;SDS011;59082;50.658;4.608;2023-02-18T09:19:14;8.75;;;2.80;;
71296;SDS011;59082;50.658;4.608;2023-02-18T09:21:40;3.17;;;2.33;;
71296;SDS011;59082;50.658;4.608;2023-02-18T09:24:06;4.57;;;1.77;;
71296;SDS011;59082;50.658;4.608;2023-02-18T09:26:32;5.25;;;2.15;;
71296;SDS011;59082;50.658;4.608;2023-02-18T09:28:57;4.60;;;2.40;;
71296;SDS011;59082;50.658;4.608;2023-02-18T09:31:24;5.20;;;3.13;;
71296;SDS011;59082;50.658;4.608;2023-02-18T09:33:59;4.50;;;2.38;;
71296;SDS011;59082;50.658;4.608;2023-02-18T09:36:26;7.65;;;1.92;;
71296;SDS011;59082;50.658;4.608;2023-02-18T09:38:52;4.57;;;2.45;;
71296;SDS011;59082;50.658;4.608;2023-02-18T09:41:24;4.40;;;2.83;;
71296;SDS011;59082;50.658;4.608;2023-02-18T09:43:56;8.20;;;1.90;;
71296;SDS011;59082;50.658;4.608;2023-02-18T09:48:50;3.10;;;1.70;;
71296;SDS011;59082;50.658;4.608;2023-02-18T09:51:17;6.67;;;2.73;;
71296;SDS011;59082;50.658;4.608;2023-02-18T09:53:44;3.60;;;1.65;;
71296;SDS011;59082;50.658;4.608;2023-02-18T09:56:15;3.95;;;2.10;;
71296;SDS011;59082;50.658;4.608;2023-02-18T09:58:46;6.63;;;2.88;;
71296;SDS011;59082;50.658;4.608;2023-02-18T10:01:21;2.78;;;1.95;;
71296;SDS011;59082;50.658;4.608;2023-02-18T10:03:54;4.97;;;2.63;;
71296;SDS011;59082;50.658;4.608;2023-02-18T10:06:25;3.63;;;1.95;;
71296;SDS011;59082;50.658;4.608;2023-02-18T10:08:53;3.88;;;2.88;;
71296;SDS011;59082;50.658;4.608;2023-02-18T10:11:27;4.50;;;2.50;;
71296;SDS011;59082;50.658;4.608;2023-02-18T10:13:53;7.55;;;3.30;;
71296;SDS011;59082;50.658;4.608;2023-02-18T10:16:20;7.13;;;2.60;;
71296;SDS011;59082;50.658;4.608;2023-02-18T10:18:49;5.05;;;2.65;;
71296;SDS011;59082;50.658;4.608;2023-02-18T10:21:19;7.57;;;3.45;;
71296;SDS011;59082;50.658;4.608;2023-02-18T10:26:29;7.47;;;3.92;;
71296;SDS011;59082;50.658;4.608;2023-02-18T10:28:57;6.10;;;3.17;;
71296;SDS011;59082;50.658;4.608;2023-02-18T10:31:35;7.25;;;2.83;;
71296;SDS011;59082;50.658;4.608;2023-02-18T10:34:06;4.97;;;2.75;;
71296;SDS011;59082;50.658;4.608;2023-02-18T10:36:43;6.63;;;2.45;;
71296;SDS011;59082;50.658;4.608;2023-02-18T10:47:36;5.82;;;2.63;;
71296;SDS011;59082;50.658;4.608;2023-02-18T10:52:49;5.53;;;2.40;;
71296;SDS011;59082;50.658;4.608;2023-02-18T10:55:19;3.28;;;1.63;;
71296;SDS011;59082;50.658;4.608;2023-02-18T10:57:59;2.60;;;2.10;;
71296;SDS011;59082;50.658;4.608;2023-02-18T11:00:25;3.93;;;2.20;;
71296;SDS011;59082;50.658;4.608;2023-02-18T11:05:47;7.50;;;2.88;;
71296;SDS011;59082;50.658;4.608;2023-02-18T11:08:23;6.63;;;3.03;;
71296;SDS011;59082;50.658;4.608;2023-02-18T11:10:51;4.13;;;2.40;;
71296;SDS011;59082;50.658;4.608;2023-02-18T11:13:26;7.30;;;2.77;;
71296;SDS011;59082;50.658;4.608;2023-02-18T11:16:00;7.88;;;3.10;;
71296;SDS011;59082;50.658;4.608;2023-02-18T11:18:31;5.82;;;2.70;;
71296;SDS011;59082;50.658;4.608;2023-02-18T11:21:04;4.68;;;2.13;;
71296;SDS011;59082;50.658;4.608;2023-02-18T11:23:54;6.68;;;2.50;;
71296;SDS011;59082;50.658;4.608;2023-02-18T11:26:28;5.13;;;2.47;;
71296;SDS011;59082;50.658;4.608;2023-02-18T11:29:19;6.40;;;2.83;;
71296;SDS011;59082;50.658;4.608;2023-02-18T11:31:48;4.40;;;2.50;;
71296;SDS011;59082;50.658;4.608;2023-02-18T11:34:19;5.93;;;3.22;;
71296;SDS011;59082;50.658;4.608;2023-02-18T11:36:47;6.60;;;4.28;;
71296;SDS011;59082;50.658;4.608;2023-02-18T11:42:29;7.72;;;2.95;;
71296;SDS011;59082;50.658;4.608;2023-02-18T11:45:01;6.63;;;2.85;;
71296;SDS011;59082;50.658;4.608;2023-02-18T11:50:56;7.60;;;3.83;;
71296;SDS011;59082;50.658;4.608;2023-02-18T11:56:35;4.47;;;2.08;;
71296;SDS011;59082;50.658;4.608;2023-02-18T11:58:45;6.63;;;2.90;;
71296;SDS011;59082;50.658;4.608;2023-02-18T12:01:26;8.40;;;4.10;;
71296;SDS011;59082;50.658;4.608;2023-02-18T12:04:13;9.93;;;3.72;;
71296;SDS011;59082;50.658;4.608;2023-02-18T12:12:25;7.30;;;3.22;;
71296;SDS011;59082;50.658;4.608;2023-02-18T12:14:54;7.57;;;1.93;;
71296;SDS011;59082;50.658;4.608;2023-02-18T12:17:25;6.75;;;1.75;;
71296;SDS011;59082;50.658;4.608;2023-02-18T12:20:11;3.78;;;2.33;;
71296;SDS011;59082;50.658;4.608;2023-02-18T12:22:53;3.85;;;1.25;;
71296;SDS011;59082;50.658;4.608;2023-02-18T12:31:05;7.10;;;2.00;;
71296;SDS011;59082;50.658;4.608;2023-02-18T12:33:41;4.82;;;1.85;;
71296;SDS011;59082;50.658;4.608;2023-02-18T12:44:38;2.35;;;1.50;;
71296;SDS011;59082;50.658;4.608;2023-02-18T12:53:38;2.65;;;1.73;;
71296;SDS011;59082;50.658;4.608;2023-02-18T13:12:04;2.85;;;1.50;;
71296;SDS011;59082;50.658;4.608;2023-02-18T13:14:53;3.28;;;1.85;;
71296;SDS011;59082;50.658;4.608;2023-02-18T13:17:23;3.47;;;1.40;;
71296;SDS011;59082;50.658;4.608;2023-02-18T13:19:53;4.18;;;1.65;;
71296;SDS011;59082;50.658;4.608;2023-02-18T13:22:24;2.70;;;1.63;;
71296;SDS011;59082;50.658;4.608;2023-02-18T13:24:53;4.75;;;1.90;;
71296;SDS011;59082;50.658;4.608;2023-02-18T13:35:43;4.93;;;2.30;;
71296;SDS011;59082;50.658;4.608;2023-02-18T13:40:52;3.75;;;2.25;;
71296;SDS011;59082;50.658;4.608;2023-02-18T13:51:25;5.65;;;2.15;;
71296;SDS011;59082;50.658;4.608;2023-02-18T13:56:44;3.63;;;2.33;;
71296;SDS011;59082;50.658;4.608;2023-02-18T13:59:18;5.63;;;2.47;;
71296;SDS011;59082;50.658;4.608;2023-02-18T14:01:53;4.30;;;1.70;;
71296;SDS011;59082;50.658;4.608;2023-02-18T14:25:42;5.80;;;3.40;;
71296;SDS011;59082;50.658;4.608;2023-02-18T14:31:05;9.23;;;3.42;;
71296;SDS011;59082;50.658;4.608;2023-02-18T14:48:24;7.23;;;2.50;;
71296;SDS011;59082;50.658;4.608;2023-02-18T14:50:54;7.78;;;3.72;;
71296;SDS011;59082;50.658;4.608;2023-02-18T14:53:22;8.27;;;4.03;;
71296;SDS011;59082;50.658;4.608;2023-02-18T14:55:52;5.30;;;2.63;;
71296;SDS011;59082;50.658;4.608;2023-02-18T15:00:53;8.60;;;3.33;;
71296;SDS011;59082;50.658;4.608;2023-02-18T15:03:19;6.55;;;3.13;;
71296;SDS011;59082;50.658;4.608;2023-02-18T15:05:46;3.10;;;2.80;;
71296;SDS011;59082;50.658;4.608;2023-02-18T15:08:19;5.23;;;2.83;;
71296;SDS011;59082;50.658;4.608;2023-02-18T15:10:56;3.67;;;2.15;;
71296;SDS011;59082;50.658;4.608;2023-02-18T15:13:26;4.22;;;2.38;;
71296;SDS011;59082;50.658;4.608;2023-02-18T15:16:01;9.30;;;2.85;;
71296;SDS011;59082;50.658;4.608;2023-02-18T15:18:33;4.93;;;3.13;;
71296;SDS011;59082;50.658;4.608;2023-02-18T15:21:04;5.07;;;2.67;;
71296;SDS011;59082;50.658;4.608;2023-02-18T15:23:33;5.97;;;2.80;;
71296;SDS011;59082;50.658;4.608;2023-02-18T15:26:00;5.95;;;3.17;;
71296;SDS011;59082;50.658;4.608;2023-02-18T15:28:31;8.70;;;2.97;;
71296;SDS011;59082;50.658;4.608;2023-02-18T15:30:58;7.03;;;3.15;;
71296;SDS011;59082;50.658;4.608;2023-02-18T15:33:26;4.60;;;2.77;;
71296;SDS011;59082;50.658;4.608;2023-02-18T15:35:59;6.15;;;3.35;;
71296;SDS011;59082;50.658;4.608;2023-02-18T15:38:29;4.53;;;3.30;;
71296;SDS011;59082;50.658;4.608;2023-02-18T15:40:56;4.03;;;2.30;;
71296;SDS011;59082;50.658;4.608;2023-02-18T15:43:23;8.10;;;2.80;;
71296;SDS011;59082;50.658;4.608;2023-02-18T15:45:52;5.50;;;2.57;;
71296;SDS011;59082;50.658;4.608;2023-02-18T15:50:50;4.47;;;3.25;;
71296;SDS011;59082;50.658;4.608;2023-02-18T15:53:17;3.63;;;2.88;;
71296;SDS011;59082;50.658;4.608;2023-02-18T15:55:45;7.13;;;3.80;;
71296;SDS011;59082;50.658;4.608;2023-02-18T15:58:22;4.67;;;2.67;;
71296;SDS011;59082;50.658;4.608;2023-02-18T16:03:57;3.17;;;2.65;;
71296;SDS011;59082;50.658;4.608;2023-02-18T16:06:26;4.45;;;2.70;;
71296;SDS011;59082;50.658;4.608;2023-02-18T16:11:44;3.37;;;3.03;;
71296;SDS011;59082;50.658;4.608;2023-02-18T16:17:05;4.25;;;3.55;;
71296;SDS011;59082;50.658;4.608;2023-02-18T16:19:44;5.32;;;2.63;;
71296;SDS011;59082;50.658;4.608;2023-02-18T16:24:59;7.23;;;3.70;;
71296;SDS011;59082;50.658;4.608;2023-02-18T16:27:35;4.95;;;3.22;;
71296;SDS011;59082;50.658;4.608;2023-02-18T16:30:08;7.35;;;5.07;;
71296;SDS011;59082;50.658;4.608;2023-02-18T16:32:40;16.70;;;6.40;;
71296;SDS011;59082;50.658;4.608;2023-02-18T16:35:06;8.60;;;3.80;;
71296;SDS011;59082;50.658;4.608;2023-02-18T16:37:31;5.63;;;3.85;;
71296;SDS011;59082;50.658;4.608;2023-02-18T16:40:23;6.72;;;4.47;;
71296;SDS011;59082;50.658;4.608;2023-02-18T16:42:52;4.80;;;3.67;;
71296;SDS011;59082;50.658;4.608;2023-02-18T16:45:33;6.85;;;4.75;;
71296;SDS011;59082;50.658;4.608;2023-02-18T16:48:03;17.00;;;8.60;;
71296;SDS011;59082;50.658;4.608;2023-02-18T16:50:32;9.43;;;5.53;;
71296;SDS011;59082;50.658;4.608;2023-02-18T16:52:58;10.73;;;7.63;;
71296;SDS011;59082;50.658;4.608;2023-02-18T16:55:28;6.53;;;5.83;;
71296;SDS011;59082;50.658;4.608;2023-02-18T16:57:54;9.20;;;6.32;;
71296;SDS011;59082;50.658;4.608;2023-02-18T17:00:21;11.52;;;6.13;;
71296;SDS011;59082;50.658;4.608;2023-02-18T17:02:48;8.77;;;6.32;;
71296;SDS011;59082;50.658;4.608;2023-02-18T17:05:19;7.68;;;5.55;;
71296;SDS011;59082;50.658;4.608;2023-02-18T17:07:47;9.67;;;6.47;;
71296;SDS011;59082;50.658;4.608;2023-02-18T17:10:15;11.77;;;7.15;;
71296;SDS011;59082;50.658;4.608;2023-02-18T17:12:50;7.05;;;5.78;;
71296;SDS011;59082;50.658;4.608;2023-02-18T17:15:24;7.40;;;6.10;;
71296;SDS011;59082;50.658;4.608;2023-02-18T17:17:56;6.63;;;4.50;;
71296;SDS011;59082;50.658;4.608;2023-02-18T17:20:28;5.70;;;4.57;;
71296;SDS011;59082;50.658;4.608;2023-02-18T17:22:56;8.82;;;5.97;;
71296;SDS011;59082;50.658;4.608;2023-02-18T17:25:43;8.60;;;6.50;;
71296;SDS011;59082;50.658;4.608;2023-02-18T17:28:09;8.38;;;6.10;;
71296;SDS011;59082;50.658;4.608;2023-02-18T17:30:39;5.18;;;4.68;;
71296;SDS011;59082;50.658;4.608;2023-02-18T17:33:06;6.95;;;4.78;;
71296;SDS011;59082;50.658;4.608;2023-02-18T17:35:35;6.57;;;4.78;;
71296;SDS011;59082;50.658;4.608;2023-02-18T17:38:03;8.13;;;6.67;;
71296;SDS011;59082;50.658;4.608;2023-02-18T17:40:34;8.82;;;5.63;;
71296;SDS011;59082;50.658;4.608;2023-02-18T17:42:59;6.67;;;4.73;;
71296;SDS011;59082;50.658;4.608;2023-02-18T17:47:58;7.65;;;5.90;;
71296;SDS011;59082;50.658;4.608;2023-02-18T17:50:25;7.57;;;4.70;;
71296;SDS011;59082;50.658;4.608;2023-02-18T17:52:51;7.22;;;4.93;;
71296;SDS011;59082;50.658;4.608;2023-02-18T17:55:21;4.70;;;3.90;;
71296;SDS011;59082;50.658;4.608;2023-02-18T17:57:49;8.88;;;6.55;;
71296;SDS011;59082;50.658;4.608;2023-02-18T18:00:17;6.60;;;5.78;;
71296;SDS011;59082;50.658;4.608;2023-02-18T18:02:51;6.43;;;5.03;;
71296;SDS011;59082;50.658;4.608;2023-02-18T18:05:21;7.70;;;6.57;;
71296;SDS011;59082;50.658;4.608;2023-02-18T18:07:59;7.87;;;4.83;;